createdAt,value
2017-12-14T00:00:28.229Z,4.60
2017-12-14T00:02:55.774Z,4.60
2017-12-14T00:05:24.066Z,4.60
2017-12-14T00:07:51.621Z,4.60
2017-12-14T00:10:19.151Z,4.70
2017-12-14T00:12:46.683Z,4.60
2017-12-14T00:15:14.230Z,4.60
2017-12-14T00:17:42.527Z,4.50
2017-12-14T00:20:10.074Z,4.50
2017-12-14T00:22:37.594Z,4.60
2017-12-14T00:25:05.421Z,4.50
2017-12-14T00:27:32.963Z,4.50
2017-12-14T00:30:00.510Z,4.50
2017-12-14T00:32:28.030Z,4.40
2017-12-14T00:34:56.338Z,4.50
2017-12-14T00:37:23.866Z,4.50
2017-12-14T00:39:52.190Z,4.50
2017-12-14T00:42:19.718Z,4.50
2017-12-14T00:44:47.275Z,4.50
2017-12-14T00:47:14.799Z,4.50
2017-12-14T00:49:42.347Z,4.60
2017-12-14T00:52:09.865Z,4.80
2017-12-14T00:54:37.417Z,4.80
2017-12-14T00:57:04.971Z,4.90
2017-12-14T00:59:32.521Z,4.90
2017-12-14T01:02:00.816Z,5.00
2017-12-14T01:04:28.370Z,5.00
2017-12-14T01:06:56.071Z,4.90
2017-12-14T01:09:23.631Z,4.80
2017-12-14T01:11:51.157Z,4.70
2017-12-14T01:14:18.715Z,4.70
2017-12-14T01:16:46.241Z,4.70
2017-12-14T01:19:13.768Z,4.60
2017-12-14T01:21:41.323Z,4.50
2017-12-14T01:24:08.847Z,4.50
2017-12-14T01:26:36.386Z,4.50
2017-12-14T01:29:04.684Z,4.40
2017-12-14T01:31:32.231Z,4.30
2017-12-14T01:34:00.518Z,4.40
2017-12-14T01:36:28.071Z,4.30
2017-12-14T01:38:56.358Z,4.50
2017-12-14T01:41:23.907Z,4.50
2017-12-14T01:43:52.199Z,4.50
2017-12-14T01:46:19.756Z,4.50
2017-12-14T01:48:47.296Z,4.50
2017-12-14T01:51:15.615Z,4.50
2017-12-14T01:53:43.140Z,4.50
2017-12-14T01:56:11.454Z,4.70
2017-12-14T01:58:38.982Z,4.70
2017-12-14T02:01:06.537Z,4.90
2017-12-14T02:03:34.828Z,4.90
2017-12-14T02:06:02.378Z,4.90
2017-12-14T02:08:30.670Z,4.80
2017-12-14T02:10:58.217Z,4.70
2017-12-14T02:13:25.750Z,4.80
2017-12-14T02:15:53.299Z,4.70
2017-12-14T02:18:20.819Z,4.70
2017-12-14T02:20:48.346Z,4.70
2017-12-14T02:23:15.922Z,4.70
2017-12-14T02:25:43.442Z,4.70
2017-12-14T02:28:10.999Z,4.70
2017-12-14T02:30:38.523Z,4.70
2017-12-14T02:33:06.075Z,4.80
2017-12-14T02:35:33.608Z,4.80
2017-12-14T02:38:01.917Z,4.80
2017-12-14T02:40:29.433Z,4.80
2017-12-14T02:42:57.745Z,4.60
2017-12-14T02:45:25.274Z,4.60
2017-12-14T02:47:52.835Z,4.50
2017-12-14T02:50:21.122Z,4.20
2017-12-14T02:52:48.683Z,4.20
2017-12-14T02:55:16.207Z,4.20
2017-12-14T02:57:43.756Z,4.10
2017-12-14T03:00:11.274Z,4.10
2017-12-14T03:02:38.822Z,4.10
2017-12-14T03:05:06.350Z,4.10
2017-12-14T03:07:33.895Z,4.10
2017-12-14T03:10:01.419Z,4.20
2017-12-14T03:12:46.103Z,4.20
2017-12-14T03:15:13.622Z,4.20
2017-12-14T03:17:41.170Z,4.10
2017-12-14T03:20:09.459Z,4.10
2017-12-14T03:22:37.031Z,4.10
2017-12-14T03:25:04.555Z,4.20
2017-12-14T03:27:32.850Z,4.30
2017-12-14T03:30:00.391Z,4.30
2017-12-14T03:32:28.692Z,4.00
2017-12-14T03:34:56.259Z,4.00
2017-12-14T03:37:23.775Z,4.10
2017-12-14T03:39:51.327Z,3.90
2017-12-14T03:42:18.851Z,3.90
2017-12-14T03:44:46.393Z,3.90
2017-12-14T03:47:13.923Z,3.70
2017-12-14T03:49:42.238Z,3.80
2017-12-14T03:52:09.759Z,3.70
2017-12-14T03:54:38.077Z,3.50
2017-12-14T03:57:05.606Z,3.50
2017-12-14T03:59:33.917Z,3.60
2017-12-14T04:02:01.440Z,3.60
2017-12-14T04:04:29.756Z,3.60
2017-12-14T04:06:57.278Z,3.60
2017-12-14T04:09:25.595Z,3.70
2017-12-14T04:11:53.117Z,3.70
2017-12-14T04:14:21.431Z,3.70
2017-12-14T04:16:48.954Z,3.70
2017-12-14T04:19:17.274Z,3.60
2017-12-14T04:21:44.803Z,3.50
2017-12-14T04:24:12.353Z,3.60
2017-12-14T04:26:40.650Z,3.70
2017-12-14T04:29:08.194Z,3.60
2017-12-14T04:31:35.724Z,3.70
2017-12-14T04:34:03.269Z,3.60
2017-12-14T04:36:30.799Z,3.60
2017-12-14T04:38:58.351Z,3.70
2017-12-14T04:41:25.880Z,3.60
2017-12-14T04:43:54.181Z,3.50
2017-12-14T04:46:21.734Z,3.50
2017-12-14T04:48:49.258Z,3.60
2017-12-14T04:51:16.812Z,3.50
2017-12-14T04:53:44.336Z,3.50
2017-12-14T04:56:11.890Z,3.50
2017-12-14T04:58:39.418Z,3.50
2017-12-14T05:01:07.735Z,3.50
2017-12-14T05:03:35.271Z,3.40
2017-12-14T05:06:02.828Z,3.50
2017-12-14T05:08:30.350Z,3.40
2017-12-14T05:10:57.902Z,3.50
2017-12-14T05:13:25.441Z,3.60
2017-12-14T05:15:52.994Z,3.50
2017-12-14T05:18:20.523Z,3.50
2017-12-14T05:20:48.077Z,3.50
2017-12-14T05:23:15.611Z,3.40
2017-12-14T05:25:43.159Z,3.50
2017-12-14T05:28:10.674Z,3.50
2017-12-14T05:30:38.229Z,3.50
2017-12-14T05:33:05.751Z,3.40
2017-12-14T05:35:34.067Z,3.50
2017-12-14T05:38:02.365Z,3.40
2017-12-14T05:40:29.908Z,3.40
2017-12-14T05:42:57.436Z,3.50
2017-12-14T05:45:25.755Z,3.50
2017-12-14T05:47:53.285Z,3.50
2017-12-14T05:50:22.098Z,3.40
2017-12-14T05:52:49.631Z,3.40
2017-12-14T05:55:17.184Z,3.50
2017-12-14T05:57:45.479Z,3.40
2017-12-14T06:00:13.039Z,3.40
2017-12-14T06:02:40.573Z,3.40
2017-12-14T06:05:08.887Z,3.50
2017-12-14T06:07:36.414Z,3.50
2017-12-14T06:10:04.724Z,3.50
2017-12-14T06:12:32.250Z,3.50
2017-12-14T06:15:00.630Z,3.50
2017-12-14T06:17:28.919Z,3.40
2017-12-14T06:19:56.492Z,3.40
2017-12-14T06:22:24.580Z,3.40
2017-12-14T06:24:52.157Z,3.30
2017-12-14T06:27:20.283Z,3.20
2017-12-14T06:51:23.553Z,3.20
2017-12-14T06:53:51.085Z,3.20
2017-12-14T06:56:18.621Z,3.30
2017-12-14T06:58:46.164Z,3.40
2017-12-14T07:01:13.713Z,3.40
2017-12-14T07:03:41.243Z,3.40
2017-12-14T07:06:08.796Z,3.30
2017-12-14T07:08:36.318Z,3.40
2017-12-14T07:11:04.632Z,3.40
2017-12-14T07:13:32.162Z,3.30
2017-12-14T07:16:00.474Z,3.20
2017-12-14T07:18:27.997Z,3.20
2017-12-14T07:20:56.334Z,3.30
2017-12-14T07:23:23.854Z,3.30
2017-12-14T07:25:51.391Z,3.20
2017-12-14T07:28:19.708Z,3.30
2017-12-14T07:30:47.231Z,3.30
2017-12-14T07:33:15.547Z,3.30
2017-12-14T07:35:43.082Z,3.30
2017-12-14T07:38:10.642Z,3.20
2017-12-14T07:40:38.178Z,3.30
2017-12-14T07:43:21.538Z,3.20
2017-12-14T07:46:09.907Z,3.20
2017-12-14T07:48:37.460Z,3.20
2017-12-14T07:51:04.989Z,3.10
2017-12-14T07:53:33.310Z,3.20
2017-12-14T07:56:00.839Z,3.20
2017-12-14T07:58:28.388Z,3.20
2017-12-14T08:00:56.687Z,3.20
2017-12-14T08:03:24.234Z,3.20
2017-12-14T08:05:51.765Z,3.30
2017-12-14T08:08:19.318Z,3.30
2017-12-14T08:10:46.852Z,3.40
2017-12-14T08:13:14.402Z,3.40
2017-12-14T08:15:41.993Z,3.40
2017-12-14T08:18:09.516Z,3.40
2017-12-14T08:20:37.046Z,3.50
2017-12-14T08:23:05.368Z,3.80
2017-12-14T08:25:32.891Z,3.70
2017-12-14T08:28:00.442Z,3.80
2017-12-14T08:30:27.981Z,3.90
2017-12-14T08:32:55.509Z,3.90
2017-12-14T08:35:23.062Z,4.00
2017-12-14T08:37:50.598Z,4.00
2017-12-14T08:40:18.147Z,4.10
2017-12-14T08:42:45.675Z,4.10
2017-12-14T08:45:13.221Z,4.00
2017-12-14T08:47:40.765Z,4.00
2017-12-14T08:50:08.318Z,4.00
2017-12-14T08:52:35.838Z,4.00
2017-12-14T08:55:04.155Z,4.00
2017-12-14T08:57:31.677Z,3.90
2017-12-14T08:59:59.226Z,3.90
2017-12-14T09:02:27.535Z,3.90
2017-12-14T09:04:55.092Z,3.90
2017-12-14T09:07:22.622Z,4.00
2017-12-14T09:09:50.949Z,4.00
2017-12-14T09:12:18.482Z,4.00
2017-12-14T09:14:46.038Z,4.10
2017-12-14T09:17:13.565Z,4.10
2017-12-14T09:19:41.886Z,4.40
2017-12-14T09:22:09.417Z,4.40
2017-12-14T09:24:37.730Z,4.50
2017-12-14T09:27:05.264Z,4.40
2017-12-14T09:29:32.810Z,4.60
2017-12-14T09:32:01.102Z,4.70
2017-12-14T09:34:28.646Z,4.60
2017-12-14T09:36:56.967Z,4.60
2017-12-14T09:39:24.494Z,4.60
2017-12-14T09:41:52.038Z,4.70
2017-12-14T09:44:20.335Z,4.70
2017-12-14T09:46:47.893Z,4.70
2017-12-14T09:49:15.427Z,4.70
2017-12-14T09:51:42.991Z,4.60
2017-12-14T09:54:11.294Z,4.70
2017-12-14T09:56:38.859Z,4.60
2017-12-14T09:59:06.398Z,4.60
2017-12-14T10:01:34.714Z,4.70
2017-12-14T10:04:02.247Z,4.60
2017-12-14T10:06:29.796Z,4.70
2017-12-14T10:08:58.090Z,4.90
2017-12-14T10:11:25.647Z,4.90
2017-12-14T10:13:53.170Z,4.90
2017-12-14T10:16:20.735Z,5.00
2017-12-14T10:18:48.266Z,4.90
2017-12-14T10:21:15.827Z,5.00
2017-12-14T10:23:43.356Z,5.00
2017-12-14T10:26:10.908Z,5.00
2017-12-14T10:28:38.435Z,5.00
2017-12-14T10:31:06.761Z,5.10
2017-12-14T10:33:34.285Z,5.10
2017-12-14T10:36:02.599Z,5.30
2017-12-14T10:38:30.119Z,5.20
2017-12-14T10:40:58.450Z,5.40
2017-12-14T10:43:25.974Z,5.40
2017-12-14T10:45:53.527Z,5.50
2017-12-14T10:48:21.068Z,5.50
2017-12-14T10:50:49.394Z,5.40
2017-12-14T10:53:16.925Z,5.40
2017-12-14T10:55:44.483Z,5.50
2017-12-14T10:58:12.002Z,5.50
2017-12-14T11:00:45.146Z,5.40
2017-12-14T11:03:12.679Z,5.50
2017-12-14T11:05:40.975Z,5.70
2017-12-14T11:08:08.533Z,5.70
2017-12-14T11:10:36.068Z,5.90
2017-12-14T11:13:04.395Z,5.90
2017-12-14T11:15:31.927Z,5.80
2017-12-14T11:17:59.485Z,6.00
2017-12-14T11:20:27.014Z,6.10
2017-12-14T11:22:54.562Z,6.10
2017-12-14T11:25:22.086Z,6.00
2017-12-14T11:27:49.632Z,6.00
2017-12-14T11:30:17.159Z,6.10
2017-12-14T11:32:45.477Z,5.80
2017-12-14T11:35:13.002Z,5.80
2017-12-14T11:37:41.322Z,5.30
2017-12-14T11:40:08.845Z,5.30
2017-12-14T11:42:37.156Z,5.30
2017-12-14T11:45:04.680Z,5.30
2017-12-14T11:47:33.006Z,5.50
2017-12-14T11:50:00.540Z,5.50
2017-12-14T11:52:28.094Z,5.40
2017-12-14T11:54:55.625Z,5.50
2017-12-14T11:57:23.179Z,5.50
2017-12-14T11:59:50.703Z,5.50
2017-12-14T12:02:18.250Z,5.50
2017-12-14T12:04:45.792Z,5.70
2017-12-14T12:07:13.342Z,5.70
2017-12-14T12:09:40.871Z,5.70
2017-12-14T12:12:10.198Z,5.70
2017-12-14T12:14:38.481Z,5.70
2017-12-14T12:17:06.032Z,5.70
2017-12-14T12:19:34.319Z,5.70
2017-12-14T12:22:01.886Z,5.70
2017-12-14T12:24:29.410Z,5.70
2017-12-14T12:26:56.959Z,5.60
2017-12-14T12:29:24.482Z,5.60
2017-12-14T12:31:52.030Z,5.60
2017-12-14T12:34:19.556Z,5.60
2017-12-14T12:36:47.886Z,5.60
2017-12-14T12:39:15.418Z,5.50
2017-12-14T12:41:43.011Z,5.50
2017-12-14T12:44:10.546Z,5.60
2017-12-14T12:46:38.094Z,5.60
2017-12-14T12:49:05.629Z,5.50
2017-12-14T12:51:33.946Z,5.30
2017-12-14T12:54:01.471Z,5.30
2017-12-14T12:56:29.794Z,5.40
2017-12-14T12:58:57.329Z,5.40
2017-12-14T13:01:24.874Z,5.40
2017-12-14T13:03:53.166Z,5.40
2017-12-14T13:06:20.728Z,5.30
2017-12-14T13:08:48.261Z,5.20
2017-12-14T13:11:16.582Z,5.00
2017-12-14T13:13:44.106Z,4.90
2017-12-14T13:16:12.395Z,4.90
2017-12-14T13:18:39.938Z,4.80
2017-12-14T13:21:08.236Z,4.80
2017-12-14T13:23:35.795Z,4.80
2017-12-14T13:26:03.326Z,4.80
2017-12-14T13:28:30.883Z,4.80
2017-12-14T13:30:59.205Z,4.80
2017-12-14T13:33:26.750Z,4.80
2017-12-14T13:35:54.282Z,4.80
2017-12-14T13:38:22.608Z,4.90
2017-12-14T13:40:50.130Z,4.80
2017-12-14T13:43:18.450Z,4.80
2017-12-14T13:45:45.971Z,4.80
2017-12-14T13:48:14.293Z,4.70
2017-12-14T13:50:41.833Z,4.70
2017-12-14T13:53:09.377Z,4.60
2017-12-14T13:55:36.911Z,4.60
2017-12-14T13:58:05.267Z,4.60
2017-12-14T14:00:32.787Z,4.60
2017-12-14T14:03:00.335Z,4.70
2017-12-14T14:05:27.866Z,4.70
2017-12-14T14:07:55.417Z,4.80
2017-12-14T14:10:22.956Z,4.80
2017-12-14T14:12:50.503Z,4.90
2017-12-14T14:15:18.032Z,4.90
2017-12-14T14:17:45.565Z,4.90
2017-12-14T14:20:13.121Z,4.90
2017-12-14T14:22:40.651Z,4.90
2017-12-14T14:25:08.197Z,5.00
2017-12-14T14:27:35.723Z,5.00
2017-12-14T14:30:04.039Z,5.00
2017-12-14T14:32:31.572Z,4.90
2017-12-14T14:34:59.130Z,5.00
2017-12-14T14:37:26.663Z,5.00
2017-12-14T14:39:54.987Z,4.90
2017-12-14T14:42:23.274Z,4.90
2017-12-14T14:44:50.822Z,4.90
2017-12-14T14:47:18.343Z,4.80
2017-12-14T14:49:46.671Z,4.80
2017-12-14T14:52:14.196Z,4.80
2017-12-14T14:54:41.739Z,4.80
2017-12-14T14:57:10.038Z,4.70
2017-12-14T14:59:37.593Z,4.70
2017-12-14T15:02:05.122Z,4.70
2017-12-14T15:04:32.670Z,4.70
2017-12-14T15:07:00.205Z,4.60
2017-12-14T15:09:27.750Z,4.60
2017-12-14T15:11:55.276Z,4.60
2017-12-14T15:14:22.839Z,4.60
2017-12-14T15:16:51.132Z,4.50
2017-12-14T15:19:18.657Z,4.50
2017-12-14T15:21:46.986Z,4.30
2017-12-14T15:24:14.514Z,4.30
2017-12-14T15:26:42.837Z,4.20
2017-12-14T15:29:10.366Z,4.20
2017-12-14T15:31:37.924Z,4.20
2017-12-14T15:34:05.450Z,4.10
2017-12-14T15:36:33.000Z,4.00
2017-12-14T15:39:00.522Z,3.90
2017-12-14T15:41:28.079Z,3.80
2017-12-14T15:43:55.601Z,3.80
2017-12-14T15:46:23.922Z,3.70
2017-12-14T15:48:51.454Z,3.70
2017-12-14T15:51:19.004Z,3.60
2017-12-14T15:53:46.531Z,3.60
2017-12-14T15:56:14.085Z,3.50
2017-12-14T15:58:41.604Z,3.50
2017-12-14T16:01:09.159Z,3.40
2017-12-14T16:03:36.687Z,3.40
2017-12-14T16:06:05.008Z,3.30
2017-12-14T16:08:32.541Z,3.30
2017-12-14T16:11:00.093Z,3.30
2017-12-14T16:13:28.379Z,2.90
2017-12-14T16:15:55.912Z,2.90
2017-12-14T16:18:24.227Z,2.70
2017-12-14T16:20:51.746Z,2.70
2017-12-14T16:23:19.296Z,2.70
2017-12-14T16:25:46.830Z,2.70
2017-12-14T16:28:14.393Z,2.60
2017-12-14T16:30:41.918Z,2.70
2017-12-14T16:33:09.464Z,2.70
2017-12-14T16:35:37.784Z,2.50
2017-12-14T16:38:05.327Z,2.50
2017-12-14T16:40:32.859Z,2.50
2017-12-14T16:43:01.178Z,2.60
2017-12-14T16:45:28.729Z,2.60
2017-12-14T16:47:56.283Z,2.70
2017-12-14T16:50:23.810Z,2.50
2017-12-14T16:52:52.125Z,2.50
2017-12-14T16:55:19.650Z,2.40
2017-12-14T16:57:47.964Z,2.30
2017-12-14T17:00:15.490Z,2.30
2017-12-14T17:02:43.799Z,2.30
2017-12-14T17:05:11.320Z,2.30
2017-12-14T17:07:38.898Z,2.30
2017-12-14T17:10:06.422Z,2.20
2017-12-14T17:12:33.975Z,2.20
2017-12-14T17:15:01.496Z,2.20
2017-12-14T17:17:29.042Z,2.30
2017-12-14T17:19:56.574Z,2.30
2017-12-14T17:22:24.904Z,2.30
2017-12-14T17:24:52.436Z,2.30
2017-12-14T17:27:19.996Z,2.30
2017-12-14T17:29:47.526Z,2.30
2017-12-14T17:32:15.856Z,2.30
2017-12-14T17:34:43.384Z,2.30
2017-12-14T17:37:10.915Z,2.30
2017-12-14T17:39:38.471Z,2.30
2017-12-14T17:42:05.994Z,2.20
2017-12-14T17:44:33.544Z,2.20
2017-12-14T17:47:01.083Z,2.20
2017-12-14T17:49:28.625Z,2.20
2017-12-14T17:51:56.924Z,2.10
2017-12-14T17:54:24.477Z,2.10
2017-12-14T17:56:52.007Z,2.20
2017-12-14T17:59:19.551Z,2.30
2017-12-14T18:01:47.094Z,2.30
2017-12-14T18:04:14.655Z,2.30
2017-12-14T18:06:42.183Z,2.40
2017-12-14T18:09:09.741Z,2.30
2017-12-14T18:11:37.270Z,2.30
2017-12-14T18:14:05.594Z,2.30
2017-12-14T18:16:33.116Z,2.30
2017-12-14T18:19:01.438Z,2.30
2017-12-14T18:21:28.964Z,2.30
2017-12-14T18:23:56.515Z,2.30
2017-12-14T18:26:24.814Z,2.20
2017-12-14T18:28:52.362Z,2.20
2017-12-14T18:31:20.647Z,2.10
2017-12-14T18:33:48.192Z,2.10
2017-12-14T18:36:16.483Z,2.00
2017-12-14T18:38:44.028Z,2.00
2017-12-14T18:41:12.332Z,2.00
2017-12-14T18:43:39.878Z,2.00
2017-12-14T18:46:07.415Z,2.10
2017-12-14T18:48:35.729Z,2.20
2017-12-14T18:51:03.263Z,2.20
2017-12-14T18:53:31.591Z,2.20
2017-12-14T18:55:59.125Z,2.20
2017-12-14T18:58:26.671Z,2.30
2017-12-14T19:00:54.203Z,2.40
2017-12-14T19:03:22.530Z,2.70
2017-12-14T19:05:50.057Z,2.70
2017-12-14T19:08:17.614Z,2.70
2017-12-14T19:10:45.910Z,2.90
2017-12-14T19:13:13.539Z,2.90
2017-12-14T19:15:41.841Z,2.90
2017-12-14T19:18:09.394Z,2.90
2017-12-14T19:20:36.934Z,3.00
2017-12-14T19:23:05.265Z,3.10
2017-12-14T19:25:32.795Z,3.00
2017-12-14T19:28:00.347Z,3.10
2017-12-14T19:30:27.888Z,3.10
2017-12-14T19:32:55.443Z,3.10
2017-12-14T19:35:22.975Z,3.10
2017-12-14T19:37:50.536Z,3.10
2017-12-14T19:40:18.063Z,3.20
2017-12-14T19:42:45.599Z,3.20
2017-12-14T19:45:13.931Z,3.20
2017-12-14T19:47:42.218Z,3.20
2017-12-14T19:50:09.775Z,3.20
2017-12-14T19:52:37.307Z,3.10
2017-12-14T19:55:04.857Z,3.10
2017-12-14T19:57:32.442Z,3.10
2017-12-14T19:59:59.990Z,3.20
2017-12-14T20:02:27.527Z,3.30
2017-12-14T20:04:55.098Z,3.30
2017-12-14T20:07:22.842Z,3.30
2017-12-14T20:09:50.438Z,3.30
2017-12-14T20:12:17.964Z,3.30
2017-12-14T20:14:45.514Z,3.30
2017-12-14T20:17:13.815Z,3.30
2017-12-14T20:19:41.396Z,3.30
2017-12-14T20:22:08.930Z,3.30
2017-12-14T20:24:36.502Z,3.30
2017-12-14T20:27:04.031Z,3.30
2017-12-14T20:29:32.355Z,3.30
2017-12-14T20:31:59.894Z,3.30
2017-12-14T20:34:27.454Z,3.30
2017-12-14T20:36:54.981Z,3.30
2017-12-14T20:39:23.313Z,3.40
2017-12-14T20:41:50.843Z,3.40
2017-12-14T20:44:18.403Z,3.40
2017-12-14T20:46:46.044Z,3.40
2017-12-14T20:49:14.362Z,3.40
2017-12-14T20:51:41.886Z,3.40
2017-12-14T20:54:10.203Z,3.40
2017-12-14T20:56:37.726Z,3.40
2017-12-14T20:59:05.291Z,3.40
2017-12-14T21:01:32.855Z,3.40
2017-12-14T21:04:00.418Z,3.40
2017-12-14T21:06:27.982Z,3.50
2017-12-14T21:08:55.577Z,3.50
2017-12-14T21:11:23.458Z,3.50
2017-12-14T21:13:51.079Z,3.50
2017-12-14T21:16:18.666Z,3.50
2017-12-14T21:21:38.966Z,3.50
2017-12-14T21:24:07.278Z,3.50
2017-12-14T21:26:34.802Z,3.50
2017-12-14T21:29:02.350Z,3.60
2017-12-14T21:31:29.874Z,3.50
2017-12-14T21:33:58.191Z,3.60
2017-12-14T21:36:25.718Z,3.60
2017-12-14T21:38:54.032Z,3.60
2017-12-14T21:41:21.557Z,3.60
2017-12-14T21:43:49.110Z,3.60
2017-12-14T21:46:17.407Z,3.60
2017-12-14T21:48:44.960Z,3.60
2017-12-14T21:51:12.489Z,3.60
2017-12-14T21:53:40.044Z,3.70
2017-12-14T21:56:07.574Z,3.80
2017-12-14T21:58:35.136Z,3.80
2017-12-14T22:01:02.662Z,3.80
2017-12-14T22:03:30.214Z,3.80
2017-12-14T22:05:57.745Z,3.80
2017-12-14T22:08:25.269Z,3.70
2017-12-14T22:10:52.831Z,3.70
2017-12-14T22:13:20.395Z,3.70
2017-12-14T22:15:47.948Z,3.70
2017-12-14T22:18:15.469Z,3.70
2017-12-14T22:20:43.026Z,3.70
2017-12-14T22:23:11.313Z,3.80
2017-12-14T22:25:38.902Z,3.70
2017-12-14T22:28:06.434Z,3.70
2017-12-14T22:30:33.987Z,3.70
2017-12-14T22:33:01.514Z,3.70
2017-12-14T22:35:29.057Z,3.80
2017-12-14T22:37:56.732Z,3.70
2017-12-14T22:40:24.287Z,3.70
2017-12-14T22:42:51.825Z,3.60
2017-12-14T22:45:19.381Z,3.70
2017-12-14T22:47:47.006Z,3.60
2017-12-14T22:50:14.558Z,3.70
2017-12-14T22:52:42.854Z,3.60
2017-12-14T22:55:10.402Z,3.60
2017-12-14T22:57:38.707Z,3.60
2017-12-14T23:00:06.287Z,3.60
2017-12-14T23:02:33.815Z,3.60
2017-12-14T23:05:01.372Z,3.60
2017-12-14T23:07:28.955Z,3.50
2017-12-14T23:09:56.512Z,3.60
2017-12-14T23:12:24.049Z,3.50
2017-12-14T23:14:51.610Z,3.50
2017-12-14T23:17:19.138Z,3.50
2017-12-14T23:19:47.484Z,3.40
2017-12-14T23:22:15.038Z,3.40
2017-12-14T23:24:42.586Z,3.40
2017-12-14T23:27:10.110Z,3.40
2017-12-14T23:29:37.675Z,3.40
2017-12-14T23:32:05.211Z,3.30
2017-12-14T23:34:32.781Z,2.90
2017-12-14T23:37:01.074Z,2.50
2017-12-14T23:39:28.630Z,2.50
2017-12-14T23:41:56.162Z,2.40
2017-12-14T23:44:23.724Z,2.40
2017-12-14T23:46:51.268Z,2.30
2017-12-14T23:49:18.856Z,2.30
2017-12-14T23:51:46.421Z,2.20
2017-12-14T23:54:14.746Z,2.10
2017-12-14T23:56:42.276Z,2.10
2017-12-14T23:59:09.825Z,2.10
